createdAt,value
2022-09-14T00:00:23.407Z,100238.50
2022-09-14T00:02:51.281Z,100224.59
2022-09-14T00:05:18.935Z,100227.81
2022-09-14T00:07:46.481Z,100229.31
2022-09-14T00:10:15.352Z,100223.97
2022-09-14T00:12:42.910Z,100221.13
2022-09-14T00:15:11.141Z,100221.78
2022-09-14T00:17:38.679Z,100215.00
2022-09-14T00:20:07.556Z,100213.13
2022-09-14T00:22:35.100Z,100223.84
2022-09-14T00:25:02.635Z,100213.31
2022-09-14T00:27:31.517Z,100223.66
2022-09-14T00:29:59.075Z,100215.84
2022-09-14T00:32:26.575Z,100200.72
2022-09-14T00:34:54.084Z,100199.09
2022-09-14T00:37:21.595Z,100207.09
2022-09-14T00:39:50.314Z,100204.66
2022-09-14T00:42:19.563Z,100214.34
2022-09-14T00:45:03.139Z,100212.09
2022-09-14T00:47:32.611Z,100208.44
2022-09-14T00:50:02.177Z,100198.28
2022-09-14T00:52:32.741Z,100193.38
2022-09-14T00:55:01.969Z,100194.78
2022-09-14T00:57:32.290Z,100184.16
2022-09-14T01:00:01.409Z,100193.00
2022-09-14T01:02:29.656Z,100193.19
2022-09-14T01:04:57.379Z,100189.81
2022-09-14T01:07:38.382Z,100179.47
2022-09-14T01:10:15.515Z,100192.06
2022-09-14T01:12:50.900Z,100186.03
2022-09-14T01:15:26.278Z,100178.44
2022-09-14T01:17:58.342Z,100172.13
2022-09-14T01:20:30.984Z,100176.09
2022-09-14T01:23:03.816Z,100180.38
2022-09-14T01:26:07.882Z,100179.44
2022-09-14T01:28:41.915Z,100181.53
2022-09-14T01:31:13.275Z,100169.41
2022-09-14T01:33:43.487Z,100173.22
2022-09-14T01:36:12.772Z,100164.94
2022-09-14T01:38:43.295Z,100168.69
2022-09-14T01:41:13.444Z,100162.41
2022-09-14T01:43:45.227Z,100168.06
2022-09-14T01:46:15.731Z,100152.66
2022-09-14T01:48:47.168Z,100151.44
2022-09-14T01:51:19.091Z,100158.97
2022-09-14T01:53:49.138Z,100152.66
2022-09-14T01:56:20.723Z,100162.81
2022-09-14T01:58:52.682Z,100153.69
2022-09-14T02:01:24.452Z,100158.69
2022-09-14T02:03:55.481Z,100160.09
2022-09-14T02:06:27.495Z,100164.97
2022-09-14T02:08:55.379Z,100158.56
2022-09-14T02:11:23.016Z,100153.31
2022-09-14T02:13:51.922Z,100156.41
2022-09-14T02:16:20.749Z,100155.47
2022-09-14T02:18:48.340Z,100151.41
2022-09-14T02:21:18.495Z,100147.84
2022-09-14T02:23:46.048Z,100145.22
2022-09-14T02:26:13.835Z,100149.53
2022-09-14T02:28:41.378Z,100150.19
2022-09-14T02:31:18.839Z,100138.41
2022-09-14T02:33:52.080Z,100134.94
2022-09-14T02:36:29.689Z,100138.63
2022-09-14T02:39:02.453Z,100133.81
2022-09-14T02:41:39.663Z,100134.31
2022-09-14T02:44:13.593Z,100132.16
2022-09-14T02:46:46.916Z,100123.22
2022-09-14T02:49:19.568Z,100123.81
2022-09-14T02:51:50.961Z,100121.59
2022-09-14T02:54:20.423Z,100130.25
2022-09-14T02:56:48.279Z,100129.06
2022-09-14T02:59:15.855Z,100130.00
2022-09-14T03:01:45.116Z,100131.50
2022-09-14T03:04:12.679Z,100125.31
2022-09-14T03:06:40.185Z,100109.31
2022-09-14T03:09:07.700Z,100117.78
2022-09-14T03:11:35.228Z,100115.03
2022-09-14T03:14:02.715Z,100115.31
2022-09-14T03:16:30.267Z,100115.97
2022-09-14T03:18:59.123Z,100108.72
2022-09-14T03:21:26.653Z,100100.72
2022-09-14T03:23:55.074Z,100085.66
2022-09-14T03:26:24.327Z,100089.69
2022-09-14T03:28:52.425Z,100094.13
2022-09-14T03:31:20.408Z,100088.75
2022-09-14T03:33:48.648Z,100082.53
2022-09-14T03:36:18.968Z,100086.13
2022-09-14T03:38:47.718Z,100090.63
2022-09-14T03:41:15.996Z,100087.34
2022-09-14T03:43:44.119Z,100082.28
2022-09-14T03:46:13.468Z,100085.56
2022-09-14T03:48:41.567Z,100078.72
2022-09-14T03:51:10.441Z,100073.34
2022-09-14T03:53:39.656Z,100074.47
2022-09-14T03:56:08.703Z,100072.78
2022-09-14T03:58:36.216Z,100069.00
2022-09-14T04:01:07.555Z,100069.75
2022-09-14T04:03:35.348Z,100074.53
2022-09-14T04:06:05.327Z,100077.63
2022-09-14T04:08:33.376Z,100081.84
2022-09-14T04:11:02.531Z,100072.47
2022-09-14T04:13:30.011Z,100075.66
2022-09-14T04:15:59.042Z,100071.97
2022-09-14T04:18:27.239Z,100070.94
2022-09-14T04:20:56.397Z,100064.38
2022-09-14T04:23:23.991Z,100072.47
2022-09-14T04:25:51.623Z,100072.13
2022-09-14T04:28:21.105Z,100065.91
2022-09-14T04:30:56.309Z,100058.38
2022-09-14T04:33:24.053Z,100057.63
2022-09-14T04:35:59.432Z,100058.38
2022-09-14T04:38:27.128Z,100065.19
2022-09-14T04:40:54.635Z,100063.28
2022-09-14T04:43:23.551Z,100057.53
2022-09-14T04:45:51.379Z,100062.38
2022-09-14T04:48:19.216Z,100065.00
2022-09-14T04:50:47.119Z,100061.28
2022-09-14T04:53:14.607Z,100065.03
2022-09-14T04:55:42.087Z,100059.78
2022-09-14T04:58:09.639Z,100055.06
2022-09-14T05:00:38.542Z,100058.44
2022-09-14T05:03:06.583Z,100046.94
2022-09-14T05:05:40.026Z,100044.72
2022-09-14T05:08:10.572Z,100044.72
2022-09-14T05:10:38.074Z,100043.53
2022-09-14T05:13:05.563Z,100044.38
2022-09-14T05:15:33.076Z,100039.44
2022-09-14T05:18:02.801Z,100048.66
2022-09-14T05:20:30.356Z,100043.91
2022-09-14T05:22:57.848Z,100040.88
2022-09-14T05:25:25.858Z,100037.47
2022-09-14T05:27:53.384Z,100032.53
2022-09-14T05:30:20.973Z,100032.78
2022-09-14T05:32:48.480Z,100039.53
2022-09-14T05:35:17.489Z,100035.44
2022-09-14T05:37:44.992Z,100031.53
2022-09-14T05:40:12.635Z,100037.88
2022-09-14T05:42:40.218Z,100031.34
2022-09-14T05:45:08.775Z,100026.56
2022-09-14T05:47:39.143Z,100030.28
2022-09-14T05:50:08.770Z,100034.06
2022-09-14T05:52:37.632Z,100040.84
2022-09-14T05:55:05.946Z,100039.84
2022-09-14T05:57:33.739Z,100034.97
2022-09-14T06:00:01.276Z,100030.94
2022-09-14T06:02:28.833Z,100026.69
2022-09-14T06:04:56.786Z,100032.84
2022-09-14T06:07:24.400Z,100043.91
2022-09-14T06:09:53.255Z,100034.94
2022-09-14T06:12:20.841Z,100037.50
2022-09-14T06:14:48.340Z,100023.97
2022-09-14T06:17:15.842Z,100025.63
2022-09-14T06:19:43.351Z,100037.00
2022-09-14T06:22:10.907Z,100035.09
2022-09-14T06:24:38.423Z,100037.38
2022-09-14T06:27:08.890Z,100038.00
2022-09-14T06:29:36.622Z,100029.25
2022-09-14T06:32:04.382Z,100036.50
2022-09-14T06:34:31.902Z,100040.13
2022-09-14T06:36:59.410Z,100049.69
2022-09-14T06:39:26.910Z,100037.91
2022-09-14T06:41:54.428Z,100037.94
2022-09-14T06:44:23.284Z,100039.03
2022-09-14T06:46:50.776Z,100025.81
2022-09-14T06:49:20.686Z,100021.47
2022-09-14T06:51:48.391Z,100036.88
2022-09-14T06:54:16.652Z,100029.28
2022-09-14T06:56:45.335Z,100021.31
2022-09-14T06:59:14.998Z,100037.56
2022-09-14T07:01:45.260Z,100026.22
2022-09-14T07:04:14.244Z,100032.69
2022-09-14T07:06:43.858Z,100030.53
2022-09-14T07:09:11.871Z,100041.72
2022-09-14T07:11:40.007Z,100034.38
2022-09-14T07:14:08.161Z,100039.78
2022-09-14T07:16:36.881Z,100035.63
2022-09-14T07:19:07.156Z,100032.66
2022-09-14T07:21:35.414Z,100044.22
2022-09-14T07:24:03.434Z,100041.72
2022-09-14T07:26:32.322Z,100039.06
2022-09-14T07:29:01.924Z,100036.28
2022-09-14T07:31:32.255Z,100042.81
2022-09-14T07:34:03.277Z,100035.53
2022-09-14T07:36:35.121Z,100043.09
2022-09-14T07:39:03.523Z,100042.38
2022-09-14T07:41:32.145Z,100041.59
2022-09-14T07:44:00.940Z,100035.97
2022-09-14T07:46:29.061Z,100041.38
2022-09-14T07:48:57.976Z,100031.28
2022-09-14T07:51:26.075Z,100034.41
2022-09-14T07:53:55.353Z,100024.78
2022-09-14T07:56:22.990Z,100026.72
2022-09-14T07:58:55.428Z,100026.22
2022-09-14T08:01:24.984Z,100005.00
2022-09-14T08:03:52.555Z,100008.41
2022-09-14T08:06:21.408Z,100004.22
2022-09-14T08:08:50.810Z,99999.53
2022-09-14T08:11:21.770Z,99995.00
2022-09-14T08:13:52.012Z,100001.00
2022-09-14T08:16:20.328Z,99993.13
2022-09-14T08:18:48.575Z,100006.75
2022-09-14T08:21:17.650Z,100011.50
2022-09-14T08:23:45.731Z,100013.09
2022-09-14T08:26:16.212Z,100011.28
2022-09-14T08:28:45.658Z,100015.97
2022-09-14T08:31:15.187Z,100013.16
2022-09-14T08:33:45.329Z,99995.91
2022-09-14T08:36:15.837Z,100010.44
2022-09-14T08:38:43.449Z,100023.94
2022-09-14T08:41:18.080Z,100012.84
2022-09-14T08:43:47.181Z,100007.16
2022-09-14T08:46:24.015Z,100007.00
2022-09-14T08:48:51.568Z,100001.97
2022-09-14T08:51:19.067Z,99993.09
2022-09-14T08:53:46.651Z,99983.34
2022-09-14T08:56:17.137Z,99985.31
2022-09-14T08:58:56.061Z,99977.81
2022-09-14T09:01:35.915Z,99978.09
2022-09-14T09:04:17.374Z,99981.81
2022-09-14T09:06:48.946Z,99983.31
2022-09-14T09:09:22.767Z,99985.50
2022-09-14T09:11:52.204Z,99987.19
2022-09-14T09:14:25.084Z,99984.44
2022-09-14T09:16:55.550Z,99982.41
2022-09-14T09:19:28.785Z,99973.44
2022-09-14T09:21:56.783Z,99974.75
2022-09-14T09:24:28.440Z,99971.34
2022-09-14T09:26:55.999Z,99970.91
2022-09-14T09:29:24.939Z,99966.47
2022-09-14T09:31:54.532Z,99959.56
2022-09-14T09:34:26.947Z,99968.31
2022-09-14T09:36:55.821Z,99973.13
2022-09-14T09:39:25.823Z,99968.50
2022-09-14T09:41:57.597Z,99969.91
2022-09-14T09:44:26.475Z,99964.47
2022-09-14T09:46:56.313Z,99950.59
2022-09-14T09:49:26.806Z,99959.44
2022-09-14T09:51:54.596Z,99961.28
2022-09-14T09:54:30.097Z,99941.09
2022-09-14T09:56:59.635Z,99936.91
2022-09-14T09:59:35.165Z,99955.31
2022-09-14T10:02:22.811Z,99952.38
2022-09-14T10:04:59.370Z,99946.78
2022-09-14T10:07:28.144Z,99945.09
2022-09-14T10:10:00.933Z,99937.41
2022-09-14T10:12:29.318Z,99938.94
2022-09-14T10:15:16.535Z,99943.09
2022-09-14T10:17:58.112Z,99941.78
2022-09-14T10:20:26.676Z,99944.94
2022-09-14T10:22:54.282Z,99941.53
2022-09-14T10:25:24.067Z,99949.88
2022-09-14T10:27:59.331Z,99937.53
2022-09-14T10:30:29.476Z,99929.00
2022-09-14T10:33:00.239Z,99934.38
2022-09-14T10:35:34.278Z,99943.34
2022-09-14T10:38:12.094Z,99940.09
2022-09-14T10:40:43.714Z,99932.13
2022-09-14T10:43:15.391Z,99906.84
2022-09-14T10:45:49.624Z,99925.75
2022-09-14T10:48:36.546Z,99921.09
2022-09-14T10:51:18.718Z,99916.50
2022-09-14T10:53:51.513Z,99917.38
2022-09-14T10:56:20.995Z,99919.25
2022-09-14T10:59:13.466Z,99927.34
2022-09-14T11:01:55.334Z,99916.84
2022-09-14T11:04:46.820Z,99912.34
2022-09-14T11:07:22.447Z,99912.19
2022-09-14T11:09:55.075Z,99917.59
2022-09-14T11:12:25.797Z,99909.56
2022-09-14T11:15:01.926Z,99915.81
2022-09-14T11:17:50.800Z,99911.94
2022-09-14T11:20:26.503Z,99909.47
2022-09-14T11:23:00.654Z,99903.03
2022-09-14T11:25:33.367Z,99911.94
2022-09-14T11:28:04.800Z,99902.47
2022-09-14T11:30:35.427Z,99911.19
2022-09-14T11:33:08.868Z,99907.63
2022-09-14T11:35:39.911Z,99909.31
2022-09-14T11:38:12.335Z,99907.22
2022-09-14T11:40:44.445Z,99914.34
2022-09-14T11:43:15.039Z,99899.97
2022-09-14T11:45:46.075Z,99909.56
2022-09-14T11:48:41.940Z,99904.13
2022-09-14T11:51:16.234Z,99895.84
2022-09-14T11:53:44.707Z,99909.00
2022-09-14T11:56:24.432Z,99904.91
2022-09-14T11:58:52.031Z,99905.78
2022-09-14T12:01:29.483Z,99907.06
2022-09-14T12:04:14.146Z,99904.16
2022-09-14T12:06:54.754Z,99892.13
2022-09-14T12:09:46.260Z,99904.75
2022-09-14T12:12:37.867Z,99902.56
2022-09-14T12:15:15.434Z,99890.78
2022-09-14T12:17:44.476Z,99892.25
2022-09-14T12:20:31.225Z,99886.97
2022-09-14T12:23:07.550Z,99896.19
2022-09-14T12:25:35.776Z,99894.69
2022-09-14T12:28:03.755Z,99887.03
2022-09-14T12:31:10.668Z,99884.19
2022-09-14T12:33:46.079Z,99886.34
2022-09-14T12:36:53.493Z,99880.63
2022-09-14T12:39:23.282Z,99877.69
2022-09-14T12:42:02.828Z,99877.31
2022-09-14T12:44:36.138Z,99867.78
2022-09-14T12:47:41.173Z,99871.16
2022-09-14T12:50:14.555Z,99872.28
2022-09-14T12:53:06.808Z,99864.50
2022-09-14T12:55:46.056Z,99873.59
2022-09-14T12:58:26.366Z,99868.44
2022-09-14T13:01:01.844Z,99869.59
2022-09-14T13:03:53.226Z,99859.88
2022-09-14T13:06:21.809Z,99852.81
2022-09-14T13:08:55.200Z,99857.25
2022-09-14T13:11:26.516Z,99845.88
2022-09-14T13:13:54.164Z,99854.78
2022-09-14T13:16:29.471Z,99843.38
2022-09-14T13:19:02.623Z,99836.16
2022-09-14T13:21:30.179Z,99839.97
2022-09-14T13:23:59.060Z,99824.28
2022-09-14T13:26:27.907Z,99824.94
2022-09-14T13:28:56.785Z,99826.66
2022-09-14T13:31:29.464Z,99828.31
2022-09-14T13:33:57.245Z,99823.16
2022-09-14T13:36:26.505Z,99826.16
2022-09-14T13:38:54.447Z,99825.31
2022-09-14T13:41:24.354Z,99814.75
2022-09-14T13:43:55.331Z,99829.63
2022-09-14T13:46:23.714Z,99821.97
2022-09-14T13:48:52.110Z,99814.25
2022-09-14T13:51:25.129Z,99817.06
2022-09-14T13:53:54.402Z,99811.22
2022-09-14T13:56:26.651Z,99826.75
2022-09-14T13:59:20.628Z,99813.38
2022-09-14T14:01:57.562Z,99815.41
2022-09-14T14:04:33.552Z,99803.06
2022-09-14T14:07:14.696Z,99802.44
2022-09-14T14:09:45.478Z,99777.38
2022-09-14T14:12:25.819Z,99780.22
2022-09-14T14:14:55.080Z,99777.97
2022-09-14T14:17:34.228Z,99768.34
2022-09-14T14:20:35.387Z,99762.03
2022-09-14T14:23:19.949Z,99764.44
2022-09-14T14:25:49.411Z,99772.09
2022-09-14T14:28:23.238Z,99761.06
2022-09-14T14:30:50.950Z,99759.06
2022-09-14T14:33:20.091Z,99760.25
2022-09-14T14:35:48.283Z,99759.25
2022-09-14T14:38:16.630Z,99756.06
2022-09-14T14:40:45.603Z,99762.41
2022-09-14T14:43:19.511Z,99762.59
2022-09-14T14:45:47.193Z,99746.22
2022-09-14T14:48:14.974Z,99752.06
2022-09-14T14:50:42.527Z,99753.06
2022-09-14T14:53:10.053Z,99754.56
2022-09-14T14:55:37.590Z,99743.19
2022-09-14T14:58:09.739Z,99740.38
2022-09-14T15:00:39.308Z,99742.38
2022-09-14T15:03:06.971Z,99744.03
2022-09-14T15:05:34.642Z,99743.03
2022-09-14T15:08:02.244Z,99745.38
2022-09-14T15:10:30.624Z,99738.84
2022-09-14T15:12:58.263Z,99736.59
2022-09-14T15:15:27.118Z,99737.69
2022-09-14T15:17:55.994Z,99736.56
2022-09-14T15:20:24.159Z,99736.88
2022-09-14T15:22:51.943Z,99730.88
2022-09-14T15:25:21.278Z,99736.31
2022-09-14T15:27:49.188Z,99734.41
2022-09-14T15:30:17.074Z,99720.13
2022-09-14T15:32:44.598Z,99724.59
2022-09-14T15:35:15.340Z,99725.75
2022-09-14T15:37:43.250Z,99713.50
2022-09-14T15:40:11.722Z,99717.84
2022-09-14T15:42:39.287Z,99717.56
2022-09-14T15:45:09.033Z,99713.94
2022-09-14T15:47:36.875Z,99707.91
2022-09-14T15:50:05.303Z,99718.59
2022-09-14T15:52:35.904Z,99723.81
2022-09-14T15:55:03.592Z,99722.31
2022-09-14T15:57:31.092Z,99717.63
2022-09-14T15:59:58.703Z,99717.59
2022-09-14T16:02:26.400Z,99722.31
2022-09-14T16:04:53.975Z,99723.50
2022-09-14T16:07:21.492Z,99717.59
2022-09-14T16:09:50.331Z,99721.06
2022-09-14T16:12:17.806Z,99736.34
2022-09-14T16:14:45.315Z,99731.63
2022-09-14T16:17:12.846Z,99726.41
2022-09-14T16:19:40.347Z,99728.91
2022-09-14T16:22:08.095Z,99728.53
2022-09-14T16:24:35.731Z,99728.06
2022-09-14T16:27:04.700Z,99735.88
2022-09-14T16:29:32.186Z,99735.78
2022-09-14T16:31:59.742Z,99739.44
2022-09-14T16:34:28.844Z,99740.28
2022-09-14T16:36:58.459Z,99744.25
2022-09-14T16:39:28.436Z,99744.56
2022-09-14T16:41:56.642Z,99751.03
2022-09-14T16:44:27.716Z,99755.66
2022-09-14T16:46:57.505Z,99750.19
2022-09-14T16:49:27.935Z,99757.41
2022-09-14T16:51:56.180Z,99757.00
2022-09-14T16:54:25.351Z,99769.44
2022-09-14T16:56:55.967Z,99760.06
2022-09-14T16:59:25.444Z,99760.63
2022-09-14T17:01:54.998Z,99762.13
2022-09-14T17:04:23.828Z,99757.31
2022-09-14T17:06:51.998Z,99758.06
2022-09-14T17:09:21.312Z,99747.06
2022-09-14T17:11:49.455Z,99755.28
2022-09-14T17:14:18.857Z,99750.09
2022-09-14T17:16:48.368Z,99749.22
2022-09-14T17:19:16.468Z,99754.00
2022-09-14T17:21:45.163Z,99756.41
2022-09-14T17:24:13.904Z,99758.72
2022-09-14T17:26:41.990Z,99765.50
2022-09-14T17:29:09.978Z,99758.06
2022-09-14T17:31:40.611Z,99758.88
2022-09-14T17:34:11.345Z,99760.63
2022-09-14T17:36:39.301Z,99766.03
2022-09-14T17:39:11.579Z,99765.19
2022-09-14T17:41:40.396Z,99774.47
2022-09-14T17:44:08.983Z,99770.03
2022-09-14T17:46:41.462Z,99774.66
2022-09-14T17:49:15.961Z,99773.59
2022-09-14T17:51:45.082Z,99770.19
2022-09-14T17:54:13.278Z,99777.44
2022-09-14T17:56:41.288Z,99774.69
2022-09-14T17:59:11.713Z,99780.91
2022-09-14T18:01:39.374Z,99777.88
2022-09-14T18:04:08.764Z,99782.78
2022-09-14T18:06:39.232Z,99786.28
2022-09-14T18:09:08.809Z,99789.63
2022-09-14T18:11:36.679Z,99781.81
2022-09-14T18:14:05.274Z,99793.25
2022-09-14T18:16:33.524Z,99798.00
2022-09-14T18:19:01.464Z,99790.69
2022-09-14T18:21:29.080Z,99802.41
2022-09-14T18:23:58.255Z,99803.19
2022-09-14T18:26:26.164Z,99817.91
2022-09-14T18:28:55.933Z,99810.38
2022-09-14T18:31:23.897Z,99812.25
2022-09-14T18:33:52.763Z,99827.34
2022-09-14T18:36:20.920Z,99822.03
2022-09-14T18:38:49.331Z,99822.88
2022-09-14T18:41:18.577Z,99830.53
2022-09-14T18:43:47.546Z,99831.22
2022-09-14T18:46:16.175Z,99839.72
2022-09-14T18:48:44.614Z,99836.78
2022-09-14T18:51:13.015Z,99841.09
2022-09-14T18:53:40.897Z,99848.91
2022-09-14T18:56:10.003Z,99844.00
2022-09-14T18:58:44.447Z,99853.16
2022-09-14T19:01:12.819Z,99844.00
2022-09-14T19:03:41.624Z,99845.31
2022-09-14T19:06:10.901Z,99844.75
2022-09-14T19:08:38.785Z,99844.06
2022-09-14T19:11:07.164Z,99847.25
2022-09-14T19:13:34.899Z,99844.00
2022-09-14T19:16:07.819Z,99847.69
2022-09-14T19:18:35.590Z,99842.75
2022-09-14T19:21:07.411Z,99850.50
2022-09-14T19:23:35.104Z,99850.78
2022-09-14T19:26:04.692Z,99849.44
2022-09-14T19:28:33.332Z,99850.25
2022-09-14T19:31:01.020Z,99844.88
2022-09-14T19:33:31.510Z,99843.66
2022-09-14T19:36:03.374Z,99845.72
2022-09-14T19:38:30.931Z,99855.81
2022-09-14T19:40:58.440Z,99853.81
2022-09-14T19:43:25.967Z,99854.84
2022-09-14T19:45:53.538Z,99858.06
2022-09-14T19:48:21.079Z,99860.91
2022-09-14T19:50:49.944Z,99852.44
2022-09-14T19:53:17.426Z,99848.38
2022-09-14T19:55:44.971Z,99856.53
2022-09-14T19:58:12.625Z,99849.72
2022-09-14T20:00:40.147Z,99850.31
2022-09-14T20:03:08.212Z,99849.88
2022-09-14T20:05:35.845Z,99854.66
2022-09-14T20:08:04.835Z,99846.75
2022-09-14T20:10:32.352Z,99855.25
2022-09-14T20:12:59.829Z,99852.38
2022-09-14T20:15:29.448Z,99854.56
2022-09-14T20:17:57.120Z,99853.09
2022-09-14T20:20:24.929Z,99853.84
2022-09-14T20:22:52.438Z,99859.56
2022-09-14T20:25:21.364Z,99862.81
2022-09-14T20:27:48.934Z,99870.78
2022-09-14T20:30:16.450Z,99864.53
2022-09-14T20:32:43.978Z,99866.69
2022-09-14T20:35:11.471Z,99867.66
2022-09-14T20:37:38.971Z,99863.56
2022-09-14T20:40:09.609Z,99864.78
2022-09-14T20:42:38.628Z,99863.47
2022-09-14T20:45:06.973Z,99870.31
2022-09-14T20:47:34.486Z,99880.50
2022-09-14T20:50:01.983Z,99876.31
2022-09-14T20:52:29.494Z,99873.44
2022-09-14T20:54:56.994Z,99880.88
2022-09-14T20:57:24.495Z,99884.00
2022-09-14T20:59:53.348Z,99882.31
2022-09-14T21:02:20.965Z,99881.59
2022-09-14T21:04:48.552Z,99881.34
2022-09-14T21:07:16.381Z,99890.97
2022-09-14T21:09:43.989Z,99888.56
2022-09-14T21:12:13.988Z,99883.69
2022-09-14T21:14:42.364Z,99895.91
2022-09-14T21:17:11.380Z,99898.47
2022-09-14T21:19:39.064Z,99897.03
2022-09-14T21:22:07.714Z,99904.91
2022-09-14T21:24:36.134Z,99905.34
2022-09-14T21:27:04.681Z,99904.59
2022-09-14T21:29:32.384Z,99903.91
2022-09-14T21:31:59.932Z,99911.59
2022-09-14T21:34:29.005Z,99916.75
2022-09-14T21:36:56.532Z,99914.84
2022-09-14T21:39:26.964Z,99915.06
2022-09-14T21:41:59.161Z,99921.00
2022-09-14T21:44:30.856Z,99923.63
2022-09-14T21:46:58.527Z,99910.66
2022-09-14T21:49:26.079Z,99914.66
2022-09-14T21:51:54.963Z,99912.22
2022-09-14T21:54:22.484Z,99918.13
2022-09-14T21:56:50.032Z,99921.00
2022-09-14T21:59:19.733Z,99914.03
2022-09-14T22:01:47.884Z,99917.63
2022-09-14T22:04:16.598Z,99914.00
2022-09-14T22:06:45.443Z,99910.84
2022-09-14T22:09:15.900Z,99902.53
2022-09-14T22:11:43.879Z,99899.38
2022-09-14T22:14:13.043Z,99903.69
2022-09-14T22:16:41.304Z,99910.03
2022-09-14T22:19:13.634Z,99905.50
2022-09-14T22:21:41.323Z,99905.16
2022-09-14T22:24:12.015Z,99909.38
2022-09-14T22:26:41.243Z,99915.66
2022-09-14T22:29:09.716Z,99922.69
2022-09-14T22:31:39.334Z,99923.00
2022-09-14T22:34:06.875Z,99928.88
2022-09-14T22:36:34.400Z,99924.00
2022-09-14T22:39:01.959Z,99925.03
2022-09-14T22:41:29.787Z,99925.16
2022-09-14T22:43:58.714Z,99942.38
2022-09-14T22:46:26.621Z,99941.78
2022-09-14T22:48:54.641Z,99927.84
2022-09-14T22:51:23.981Z,99922.53
2022-09-14T22:53:52.587Z,99913.78
2022-09-14T22:56:22.232Z,99919.34
2022-09-14T22:58:49.969Z,99923.41
2022-09-14T23:01:20.481Z,99924.81
2022-09-14T23:03:48.023Z,99921.75
2022-09-14T23:06:15.681Z,99922.94
2022-09-14T23:08:43.203Z,99923.72
2022-09-14T23:11:12.450Z,99924.56
2022-09-14T23:13:41.220Z,99919.78
2022-09-14T23:16:13.180Z,99926.38
2022-09-14T23:18:42.285Z,99925.34
2022-09-14T23:21:10.250Z,99930.06
2022-09-14T23:23:39.048Z,99936.16
2022-09-14T23:26:08.715Z,99937.44
2022-09-14T23:28:36.886Z,99943.59
2022-09-14T23:31:05.089Z,99942.31
2022-09-14T23:33:32.653Z,99950.81
2022-09-14T23:36:01.509Z,99948.63
2022-09-14T23:38:29.181Z,99951.16
2022-09-14T23:40:58.389Z,99948.44
2022-09-14T23:43:25.888Z,99937.03
2022-09-14T23:45:53.761Z,99939.34
2022-09-14T23:48:21.254Z,99942.28
2022-09-14T23:50:57.475Z,99940.38
2022-09-14T23:53:26.849Z,99939.94
2022-09-14T23:55:54.637Z,99933.03
2022-09-14T23:58:22.165Z,99929.94
